createdAt,value
2019-03-08T00:00:02.079Z,8.2
2019-03-08T00:05:01.614Z,8.2
2019-03-08T00:10:01.526Z,8.2
2019-03-08T00:15:02.058Z,8.3
2019-03-08T00:20:01.851Z,8.3
2019-03-08T00:25:01.557Z,8.3
2019-03-08T00:30:01.492Z,8.4
2019-03-08T00:35:02.046Z,8.4
2019-03-08T00:40:02.087Z,8.4
2019-03-08T00:45:01.876Z,8.5
2019-03-08T00:50:01.683Z,8.5
2019-03-08T00:55:01.516Z,8.5
2019-03-08T01:00:02.134Z,8.3
2019-03-08T01:05:01.913Z,8.2
2019-03-08T01:10:01.681Z,8.1
2019-03-08T01:15:02.133Z,7.9
2019-03-08T01:20:01.215Z,7.8
2019-03-08T01:25:02.042Z,7.7
2019-03-08T01:30:02.158Z,7.6
2019-03-08T01:35:01.513Z,7.5
2019-03-08T01:40:01.755Z,7.5
2019-03-08T01:45:01.371Z,7.3
2019-03-08T01:50:01.167Z,7.3
2019-03-08T01:55:02.219Z,7.2
2019-03-08T02:00:01.986Z,7.2
2019-03-08T02:05:01.907Z,7.2
2019-03-08T02:10:01.806Z,7.2
2019-03-08T02:15:01.372Z,7.2
2019-03-08T02:20:01.959Z,7.1
2019-03-08T02:25:01.568Z,7.1
2019-03-08T02:30:01.637Z,7
2019-03-08T02:35:01.215Z,7
2019-03-08T02:40:01.694Z,7
2019-03-08T02:45:02.060Z,7
2019-03-08T02:50:01.698Z,7.1
2019-03-08T02:55:01.288Z,7
2019-03-08T03:00:01.826Z,7
2019-03-08T03:05:01.359Z,7
2019-03-08T03:10:01.328Z,7
2019-03-08T03:15:02.205Z,7
2019-03-08T03:20:02.251Z,7
2019-03-08T03:25:01.310Z,7
2019-03-08T03:30:01.442Z,7
2019-03-08T03:35:02.313Z,6.9
2019-03-08T03:40:01.903Z,6.9
2019-03-08T03:45:02.079Z,6.9
2019-03-08T03:50:01.382Z,6.9
2019-03-08T03:55:01.756Z,6.9
2019-03-08T04:00:01.785Z,6.9
2019-03-08T04:05:01.634Z,6.9
2019-03-08T04:10:02.293Z,6.9
2019-03-08T04:15:01.793Z,6.9
2019-03-08T04:20:01.600Z,6.9
2019-03-08T04:25:01.419Z,7
2019-03-08T04:30:01.794Z,7
2019-03-08T04:35:01.182Z,7.1
2019-03-08T04:40:01.774Z,7.1
2019-03-08T04:45:02.050Z,7.1
2019-03-08T04:50:02.071Z,7.1
2019-03-08T04:55:01.786Z,7.2
2019-03-08T05:00:02.455Z,7.2
2019-03-08T05:05:01.511Z,7.2
2019-03-08T05:10:01.651Z,7.2
2019-03-08T05:15:01.593Z,7.2
2019-03-08T05:20:01.676Z,7.2
2019-03-08T05:25:01.942Z,7.2
2019-03-08T05:30:01.813Z,7.3
2019-03-08T05:35:01.677Z,7.3
2019-03-08T05:40:01.179Z,7.3
2019-03-08T05:45:02.115Z,7.3
2019-03-08T05:50:01.257Z,7.3
2019-03-08T05:55:02.131Z,7.2
2019-03-08T06:00:01.449Z,7.2
2019-03-08T06:05:01.704Z,7.2
2019-03-08T06:10:01.458Z,7.2
2019-03-08T06:15:02.250Z,7.2
2019-03-08T06:20:01.759Z,7.3
2019-03-08T06:25:01.252Z,7.3
2019-03-08T06:30:02.388Z,7.3
2019-03-08T06:35:02.106Z,7.4
2019-03-08T06:40:01.526Z,7.4
2019-03-08T06:45:01.470Z,7.4
2019-03-08T06:50:01.620Z,7.3
2019-03-08T06:55:01.234Z,7.2
2019-03-08T07:00:01.846Z,7.1
2019-03-08T07:05:02.345Z,7
2019-03-08T07:10:01.694Z,7
2019-03-08T07:15:02.102Z,7
2019-03-08T07:20:01.789Z,6.9
2019-03-08T07:25:02.236Z,6.9
2019-03-08T07:30:01.870Z,6.8
2019-03-08T07:35:01.816Z,6.7
2019-03-08T07:40:01.947Z,6.7
2019-03-08T07:45:01.682Z,6.7
2019-03-08T07:50:01.490Z,6.6
2019-03-08T07:55:01.713Z,6.7
2019-03-08T08:00:02.270Z,6.8
2019-03-08T08:05:01.366Z,6.8
2019-03-08T08:10:01.915Z,6.8
2019-03-08T08:15:01.776Z,6.8
2019-03-08T08:20:01.961Z,6.9
2019-03-08T08:25:01.357Z,7
2019-03-08T08:30:01.923Z,7.1
2019-03-08T08:35:02.167Z,7.2
2019-03-08T08:40:01.464Z,7.1
2019-03-08T08:45:01.439Z,7.3
2019-03-08T08:50:01.790Z,7.5
2019-03-08T08:55:01.912Z,7.6
2019-03-08T09:00:01.599Z,7.7
2019-03-08T09:05:02.119Z,7.8
2019-03-08T09:10:02.276Z,8
2019-03-08T09:15:01.390Z,8.4
2019-03-08T09:20:02.165Z,8.4
2019-03-08T09:25:01.305Z,8.6
2019-03-08T09:30:02.201Z,8.9
2019-03-08T09:35:01.276Z,9.2
2019-03-08T09:40:01.231Z,9.5
2019-03-08T09:45:01.475Z,9.5
2019-03-08T09:50:01.950Z,9.6
2019-03-08T09:55:02.084Z,9.6
2019-03-08T10:00:01.391Z,9.6
2019-03-08T10:05:01.848Z,10
2019-03-08T10:10:01.628Z,9.9
2019-03-08T10:15:02.046Z,9.8
2019-03-08T10:20:01.892Z,9.7
2019-03-08T10:25:01.596Z,9.8
2019-03-08T10:30:02.075Z,9.6
2019-03-08T10:35:01.936Z,9.6
2019-03-08T10:40:02.064Z,9.5
2019-03-08T10:45:01.208Z,10
2019-03-08T10:50:01.225Z,10.1
2019-03-08T10:55:02.067Z,10.7
2019-03-08T11:00:01.744Z,10.5
2019-03-08T11:05:01.720Z,10.4
2019-03-08T11:10:02.088Z,10.4
2019-03-08T11:15:01.487Z,10.2
2019-03-08T11:20:02.252Z,10.2
2019-03-08T11:25:07.933Z,9.9
2019-03-08T11:30:01.679Z,10
2019-03-08T11:35:01.543Z,10.2
2019-03-08T11:40:01.923Z,10.6
2019-03-08T11:45:02.408Z,10.5
2019-03-08T11:50:02.066Z,10.4
2019-03-08T11:55:02.095Z,10.2
2019-03-08T12:00:01.830Z,10.4
2019-03-08T12:05:01.786Z,10.5
2019-03-08T12:10:02.012Z,10.3
2019-03-08T12:15:01.649Z,10.1
2019-03-08T12:20:01.962Z,9.9
2019-03-08T12:25:01.734Z,9.9
2019-03-08T12:30:04.104Z,9.6
2019-03-08T12:35:01.977Z,9.6
2019-03-08T12:40:02.192Z,10.1
2019-03-08T12:45:01.354Z,10.2
2019-03-08T12:50:02.176Z,10.4
2019-03-08T12:55:01.255Z,10.3
2019-03-08T13:00:01.830Z,10.6
2019-03-08T13:05:01.486Z,10.8
2019-03-08T13:10:02.100Z,10.9
2019-03-08T13:15:02.009Z,11.2
2019-03-08T13:20:01.649Z,11.3
2019-03-08T13:25:01.500Z,11.4
2019-03-08T13:30:01.871Z,11.6
2019-03-08T13:35:01.771Z,11.4
2019-03-08T13:40:01.508Z,11.2
2019-03-08T13:45:01.600Z,10.8
2019-03-08T13:50:01.742Z,10.2
2019-03-08T13:55:01.612Z,9.9
2019-03-08T14:00:02.095Z,9.9
2019-03-08T14:05:01.546Z,10
2019-03-08T14:10:02.141Z,10.1
2019-03-08T14:15:01.934Z,9.9
2019-03-08T14:20:02.180Z,9.5
2019-03-08T14:25:01.804Z,9.5
2019-03-08T14:30:02.086Z,9.4
2019-03-08T14:35:01.328Z,9.4
2019-03-08T14:40:01.658Z,9.2
2019-03-08T14:45:03.320Z,9
2019-03-08T14:50:01.857Z,8.9
2019-03-08T14:55:02.020Z,9.2
2019-03-08T15:00:01.760Z,9.1
2019-03-08T15:05:10.644Z,9
2019-03-08T15:10:02.244Z,8.8
2019-03-08T15:15:01.350Z,8.8
2019-03-08T15:20:01.744Z,8.7
2019-03-08T15:25:01.880Z,8.4
2019-03-08T15:30:01.460Z,8.3
2019-03-08T15:35:01.702Z,8.1
2019-03-08T15:40:02.448Z,8.1
2019-03-08T15:45:01.681Z,8.2
2019-03-08T15:50:04.451Z,8.3
2019-03-08T15:55:01.528Z,8.1
2019-03-08T16:00:01.531Z,8.1
2019-03-08T16:05:03.691Z,8.1
2019-03-08T16:10:01.564Z,8.1
2019-03-08T16:15:01.493Z,8
2019-03-08T16:20:02.789Z,7.9
2019-03-08T16:25:01.932Z,7.9
2019-03-08T16:30:06.854Z,7.8
2019-03-08T16:35:01.733Z,7.6
2019-03-08T16:40:01.890Z,7.6
2019-03-08T16:45:01.689Z,7.5
2019-03-08T16:50:01.467Z,7.5
2019-03-08T16:55:02.060Z,7.4
2019-03-08T17:00:02.369Z,7.1
2019-03-08T17:05:01.634Z,6.9
2019-03-08T17:10:01.877Z,6.8
2019-03-08T17:15:01.829Z,6.7
2019-03-08T17:20:01.897Z,6.6
2019-03-08T17:25:02.189Z,6.5
2019-03-08T17:30:01.625Z,6.5
2019-03-08T17:35:01.887Z,6.5
2019-03-08T17:40:02.065Z,6.5
2019-03-08T17:45:01.804Z,6.5
2019-03-08T17:50:02.236Z,6.5
2019-03-08T17:55:02.197Z,6.4
2019-03-08T18:00:01.743Z,6.4
2019-03-08T18:05:01.638Z,6.3
2019-03-08T18:10:01.811Z,6.3
2019-03-08T18:15:01.839Z,6.3
2019-03-08T18:20:02.101Z,6.3
2019-03-08T18:25:02.507Z,6.3
2019-03-08T18:30:01.495Z,6.3
2019-03-08T18:35:02.079Z,6.2
2019-03-08T18:40:01.936Z,6.2
2019-03-08T18:45:02.173Z,6.1
2019-03-08T18:50:01.585Z,6
2019-03-08T18:55:02.199Z,6
2019-03-08T19:00:01.600Z,6
2019-03-08T19:05:02.450Z,6
2019-03-08T19:10:01.885Z,6
2019-03-08T19:15:01.218Z,5.9
2019-03-08T19:20:01.566Z,5.8
2019-03-08T19:25:01.905Z,5.8
2019-03-08T19:30:02.154Z,5.7
2019-03-08T19:35:01.960Z,5.6
2019-03-08T19:40:01.729Z,5.6
2019-03-08T19:45:01.628Z,5.6
2019-03-08T19:50:01.455Z,5.6
2019-03-08T19:55:02.109Z,5.6
2019-03-08T20:00:01.177Z,5.6
2019-03-08T20:05:01.996Z,5.6
2019-03-08T20:10:02.393Z,5.6
2019-03-08T20:15:01.941Z,5.6
2019-03-08T20:20:01.522Z,5.5
2019-03-08T20:25:01.729Z,5.5
2019-03-08T20:30:02.263Z,5.5
2019-03-08T20:35:01.976Z,5.5
2019-03-08T20:40:01.741Z,5.4
2019-03-08T20:45:01.813Z,5.4
2019-03-08T20:50:02.803Z,5.4
2019-03-08T20:55:01.732Z,5.4
2019-03-08T21:00:01.359Z,5.3
2019-03-08T21:05:02.060Z,5.4
2019-03-08T21:10:01.592Z,5.4
2019-03-08T21:15:01.743Z,5.4
2019-03-08T21:20:02.322Z,5.3
2019-03-08T21:25:01.919Z,5.2
2019-03-08T21:30:01.359Z,5.1
2019-03-08T21:35:02.112Z,5
2019-03-08T21:40:02.386Z,4.9
2019-03-08T21:45:01.587Z,4.8
2019-03-08T21:50:01.709Z,4.8
2019-03-08T21:55:01.269Z,4.8
2019-03-08T22:00:02.165Z,4.7
2019-03-08T22:05:01.956Z,4.7
2019-03-08T22:10:01.261Z,4.7
2019-03-08T22:15:02.430Z,4.7
2019-03-08T22:20:01.658Z,4.6
2019-03-08T22:25:02.060Z,4.6
2019-03-08T22:30:01.820Z,4.6
2019-03-08T22:35:02.200Z,4.6
2019-03-08T22:40:01.622Z,4.8
2019-03-08T22:45:01.929Z,4.9
2019-03-08T22:50:01.620Z,5.1
2019-03-08T22:55:01.431Z,5.5
2019-03-08T23:00:01.326Z,5.5
2019-03-08T23:05:02.197Z,5.6
2019-03-08T23:10:01.979Z,5.6
2019-03-08T23:15:01.999Z,5.6
2019-03-08T23:20:02.212Z,5.6
2019-03-08T23:25:01.346Z,5.5
2019-03-08T23:30:01.573Z,5.3
2019-03-08T23:35:01.328Z,5.1
2019-03-08T23:40:01.727Z,5.1
2019-03-08T23:45:02.171Z,5
2019-03-08T23:50:01.772Z,5
2019-03-08T23:55:01.781Z,5
